createdAt,value
2023-04-22T00:00:52.130Z,975.58
2023-04-22T00:01:52.027Z,975.57
2023-04-22T00:02:52.156Z,975.59
2023-04-22T00:03:52.197Z,975.57
2023-04-22T00:04:52.200Z,975.61
2023-04-22T00:05:52.128Z,975.60
2023-04-22T00:06:52.019Z,975.61
2023-04-22T00:07:51.960Z,975.60
2023-04-22T00:08:51.962Z,975.64
2023-04-22T00:09:51.917Z,975.63
2023-04-22T00:10:51.925Z,975.59
2023-04-22T00:11:51.953Z,975.62
2023-04-22T00:12:51.916Z,975.59
2023-04-22T00:13:51.893Z,975.61
2023-04-22T00:14:51.907Z,975.56
2023-04-22T00:15:51.945Z,975.63
2023-04-22T00:16:51.855Z,975.59
2023-04-22T00:17:51.840Z,975.53
2023-04-22T00:18:51.880Z,975.61
2023-04-22T00:19:51.806Z,975.58
2023-04-22T00:20:51.826Z,975.59
2023-04-22T00:21:51.825Z,975.64
2023-04-22T00:22:51.818Z,975.61
2023-04-22T00:23:51.787Z,975.63
2023-04-22T00:24:51.782Z,975.62
2023-04-22T00:25:51.752Z,975.61
2023-04-22T00:26:51.745Z,975.58
2023-04-22T00:27:51.719Z,975.59
2023-04-22T00:28:51.721Z,975.60
2023-04-22T00:29:51.712Z,975.60
2023-04-22T00:30:51.787Z,975.60
2023-04-22T00:31:51.717Z,975.61
2023-04-22T00:32:51.684Z,975.58
2023-04-22T00:33:51.649Z,975.57
2023-04-22T00:34:51.660Z,975.57
2023-04-22T00:35:51.619Z,975.58
2023-04-22T00:36:51.629Z,975.58
2023-04-22T00:37:51.662Z,975.60
2023-04-22T00:38:51.602Z,975.59
2023-04-22T00:39:51.613Z,975.58
2023-04-22T00:40:51.584Z,975.60
2023-04-22T00:41:51.621Z,975.65
2023-04-22T00:42:51.600Z,975.59
2023-04-22T00:43:51.523Z,975.55
2023-04-22T00:44:51.549Z,975.54
2023-04-22T00:45:51.559Z,975.54
2023-04-22T00:46:51.583Z,975.53
2023-04-22T00:47:51.543Z,975.56
2023-04-22T00:48:51.523Z,975.56
2023-04-22T00:49:51.457Z,975.53
2023-04-22T00:50:52.437Z,975.51
2023-04-22T00:51:51.452Z,975.53
2023-04-22T00:52:51.478Z,975.53
2023-04-22T00:53:51.407Z,975.59
2023-04-22T00:54:51.451Z,975.53
2023-04-22T00:55:51.394Z,975.53
2023-04-22T00:56:51.443Z,975.54
2023-04-22T00:57:51.365Z,975.55
2023-04-22T00:58:51.376Z,975.58
2023-04-22T00:59:51.369Z,975.53
2023-04-22T01:00:51.469Z,975.55
2023-04-22T01:01:51.375Z,975.60
2023-04-22T01:02:51.432Z,975.60
2023-04-22T01:03:51.371Z,975.56
2023-04-22T01:04:51.348Z,975.55
2023-04-22T01:05:51.333Z,975.56
2023-04-22T01:06:51.303Z,975.54
2023-04-22T01:07:51.289Z,975.58
2023-04-22T01:08:51.310Z,975.61
2023-04-22T01:09:51.243Z,975.56
2023-04-22T01:10:51.250Z,975.56
2023-04-22T01:11:51.226Z,975.55
2023-04-22T01:12:51.240Z,975.58
2023-04-22T01:13:51.179Z,975.56
2023-04-22T01:14:51.227Z,975.54
2023-04-22T01:15:51.165Z,975.55
2023-04-22T01:16:51.231Z,975.54
2023-04-22T01:17:51.164Z,975.54
2023-04-22T01:18:51.215Z,975.56
2023-04-22T01:19:51.135Z,975.54
2023-04-22T01:20:51.140Z,975.53
2023-04-22T01:21:51.105Z,975.57
2023-04-22T01:22:51.101Z,975.59
2023-04-22T01:23:51.105Z,975.52
2023-04-22T01:24:51.125Z,975.54
2023-04-22T01:25:51.044Z,975.58
2023-04-22T01:26:51.107Z,975.56
2023-04-22T01:27:51.024Z,975.58
2023-04-22T01:28:51.029Z,975.58
2023-04-22T01:29:51.014Z,975.53
2023-04-22T01:30:51.075Z,975.56
2023-04-22T01:31:51.056Z,975.58
2023-04-22T01:32:51.937Z,975.55
2023-04-22T01:33:50.958Z,975.60
2023-04-22T01:34:50.971Z,975.70
2023-04-22T01:35:50.976Z,975.72
2023-04-22T01:36:50.975Z,975.71
2023-04-22T01:37:50.919Z,975.74
2023-04-22T01:38:50.923Z,975.77
2023-04-22T01:39:50.895Z,975.71
2023-04-22T01:40:50.938Z,975.75
2023-04-22T01:41:50.880Z,975.72
2023-04-22T01:42:50.937Z,975.73
2023-04-22T01:43:50.872Z,975.74
2023-04-22T01:44:50.860Z,975.78
2023-04-22T01:45:50.904Z,975.74
2023-04-22T01:46:50.848Z,975.76
2023-04-22T01:47:50.958Z,975.75
2023-04-22T01:48:50.826Z,975.79
2023-04-22T01:49:50.868Z,975.82
2023-04-22T01:50:50.814Z,975.82
2023-04-22T01:51:50.784Z,975.82
2023-04-22T01:52:50.820Z,975.81
2023-04-22T01:53:50.746Z,975.81
2023-04-22T01:54:50.781Z,975.83
2023-04-22T01:55:50.735Z,975.86
2023-04-22T01:56:50.714Z,975.83
2023-04-22T01:57:50.686Z,975.79
2023-04-22T01:58:50.690Z,975.77
2023-04-22T01:59:50.681Z,975.75
2023-04-22T02:00:50.743Z,975.73
2023-04-22T02:01:50.717Z,975.79
2023-04-22T02:02:50.795Z,975.76
2023-04-22T02:03:50.724Z,975.81
2023-04-22T02:04:50.721Z,975.83
2023-04-22T02:05:50.611Z,975.81
2023-04-22T02:06:50.615Z,975.83
2023-04-22T02:07:51.013Z,975.80
2023-04-22T02:08:50.600Z,975.82
2023-04-22T02:09:50.985Z,975.80
2023-04-22T02:10:50.565Z,975.83
2023-04-22T02:11:50.577Z,975.78
2023-04-22T02:12:50.560Z,975.83
2023-04-22T02:13:50.509Z,975.82
2023-04-22T02:14:50.524Z,975.81
2023-04-22T02:15:50.568Z,975.78
2023-04-22T02:16:50.500Z,975.79
2023-04-22T02:17:50.485Z,975.78
2023-04-22T02:18:50.536Z,975.76
2023-04-22T02:19:50.499Z,975.74
2023-04-22T02:20:50.456Z,975.70
2023-04-22T02:21:50.402Z,975.69
2023-04-22T02:22:50.421Z,975.71
2023-04-22T02:23:50.406Z,975.70
2023-04-22T02:24:50.441Z,975.72
2023-04-22T02:25:50.433Z,975.71
2023-04-22T02:26:50.367Z,975.70
2023-04-22T02:27:50.339Z,975.67
2023-04-22T02:28:50.396Z,975.65
2023-04-22T02:29:50.319Z,975.63
2023-04-22T02:30:50.335Z,975.60
2023-04-22T02:31:50.541Z,975.59
2023-04-22T02:32:50.363Z,975.59
2023-04-22T02:33:50.445Z,975.63
2023-04-22T02:34:50.287Z,975.61
2023-04-22T02:35:50.281Z,975.63
2023-04-22T02:36:50.273Z,975.67
2023-04-22T02:37:50.248Z,975.67
2023-04-22T02:38:50.316Z,975.64
2023-04-22T02:39:50.210Z,975.63
2023-04-22T02:40:50.293Z,975.65
2023-04-22T02:41:50.187Z,975.66
2023-04-22T02:42:50.199Z,975.63
2023-04-22T02:43:50.208Z,975.57
2023-04-22T02:44:50.156Z,975.57
2023-04-22T02:45:50.166Z,975.56
2023-04-22T02:46:50.198Z,975.54
2023-04-22T02:47:50.216Z,975.51
2023-04-22T02:48:50.344Z,975.54
2023-04-22T02:49:50.091Z,975.52
2023-04-22T02:50:50.119Z,975.46
2023-04-22T02:51:50.080Z,975.52
2023-04-22T02:52:50.124Z,975.50
2023-04-22T02:53:50.142Z,975.47
2023-04-22T02:54:50.062Z,975.43
2023-04-22T02:55:50.017Z,975.50
2023-04-22T02:56:50.103Z,975.40
2023-04-22T02:57:49.992Z,975.48
2023-04-22T02:58:50.036Z,975.47
2023-04-22T02:59:49.978Z,975.42
2023-04-22T03:00:50.127Z,975.40
2023-04-22T03:01:49.971Z,975.42
2023-04-22T03:02:50.073Z,975.41
2023-04-22T03:03:50.256Z,975.41
2023-04-22T03:04:50.032Z,975.35
2023-04-22T03:05:49.929Z,975.41
2023-04-22T03:06:50.649Z,975.40
2023-04-22T03:07:49.889Z,975.39
2023-04-22T03:08:49.915Z,975.41
2023-04-22T03:09:50.725Z,975.40
2023-04-22T03:10:49.896Z,975.40
2023-04-22T03:11:49.835Z,975.39
2023-04-22T03:12:49.869Z,975.37
2023-04-22T03:13:49.818Z,975.38
2023-04-22T03:14:49.824Z,975.39
2023-04-22T03:15:49.802Z,975.34
2023-04-22T03:16:49.856Z,975.30
2023-04-22T03:17:49.875Z,975.27
2023-04-22T03:18:49.793Z,975.25
2023-04-22T03:19:49.773Z,975.27
2023-04-22T03:20:49.798Z,975.23
2023-04-22T03:21:49.717Z,975.24
2023-04-22T03:22:49.736Z,975.26
2023-04-22T03:23:49.757Z,975.27
2023-04-22T03:24:49.722Z,975.28
2023-04-22T03:25:49.673Z,975.28
2023-04-22T03:26:49.696Z,975.27
2023-04-22T03:27:49.681Z,975.20
2023-04-22T03:28:49.672Z,975.25
2023-04-22T03:29:49.632Z,975.24
2023-04-22T03:30:49.711Z,975.25
2023-04-22T03:31:49.740Z,975.28
2023-04-22T03:32:49.712Z,975.25
2023-04-22T03:33:49.573Z,975.28
2023-04-22T03:34:49.616Z,975.29
2023-04-22T03:35:49.600Z,975.31
2023-04-22T03:36:49.600Z,975.29
2023-04-22T03:37:49.557Z,975.29
2023-04-22T03:38:49.545Z,975.30
2023-04-22T03:39:49.554Z,975.31
2023-04-22T03:40:51.078Z,975.31
2023-04-22T03:41:49.500Z,975.30
2023-04-22T03:42:49.580Z,975.25
2023-04-22T03:43:49.507Z,975.25
2023-04-22T03:44:49.480Z,975.27
2023-04-22T03:45:49.497Z,975.28
2023-04-22T03:46:49.467Z,975.30
2023-04-22T03:47:49.499Z,975.31
2023-04-22T03:48:49.468Z,975.26
2023-04-22T03:49:49.392Z,975.34
2023-04-22T03:50:49.444Z,975.31
2023-04-22T03:51:49.415Z,975.34
2023-04-22T03:52:49.387Z,975.34
2023-04-22T03:53:49.410Z,975.32
2023-04-22T03:54:49.383Z,975.31
2023-04-22T03:55:49.349Z,975.31
2023-04-22T03:56:49.365Z,975.31
2023-04-22T03:57:49.324Z,975.29
2023-04-22T03:58:49.399Z,975.29
2023-04-22T03:59:49.333Z,975.29
2023-04-22T04:00:49.297Z,975.29
2023-04-22T04:01:49.290Z,975.25
2023-04-22T04:02:49.429Z,975.28
2023-04-22T04:03:49.501Z,975.26
2023-04-22T04:04:49.607Z,975.26
2023-04-22T04:05:49.334Z,975.29
2023-04-22T04:06:49.227Z,975.29
2023-04-22T04:07:49.220Z,975.32
2023-04-22T04:08:49.185Z,975.30
2023-04-22T04:09:49.200Z,975.32
2023-04-22T04:10:50.047Z,975.31
2023-04-22T04:11:49.223Z,975.36
2023-04-22T04:12:49.138Z,975.32
2023-04-22T04:13:49.157Z,975.32
2023-04-22T04:14:49.150Z,975.32
2023-04-22T04:15:49.138Z,975.33
2023-04-22T04:16:49.123Z,975.28
2023-04-22T04:17:49.184Z,975.28
2023-04-22T04:18:49.140Z,975.27
2023-04-22T04:19:49.084Z,975.22
2023-04-22T04:20:49.071Z,975.27
2023-04-22T04:21:49.058Z,975.26
2023-04-22T04:22:49.014Z,975.24
2023-04-22T04:23:49.045Z,975.25
2023-04-22T04:24:49.002Z,975.26
2023-04-22T04:25:49.018Z,975.20
2023-04-22T04:26:49.006Z,975.19
2023-04-22T04:27:48.993Z,975.17
2023-04-22T04:28:48.962Z,975.13
2023-04-22T04:29:48.972Z,975.13
2023-04-22T04:30:48.948Z,975.12
2023-04-22T04:31:49.880Z,975.13
2023-04-22T04:32:49.009Z,975.11
2023-04-22T04:33:48.936Z,975.16
2023-04-22T04:34:49.106Z,975.16
2023-04-22T04:35:48.921Z,975.13
2023-04-22T04:36:48.975Z,975.15
2023-04-22T04:37:48.872Z,975.10
2023-04-22T04:38:48.850Z,975.11
2023-04-22T04:39:48.878Z,975.09
2023-04-22T04:40:48.837Z,975.07
2023-04-22T04:43:00.459Z,975.03
2023-04-22T04:44:00.428Z,975.06
2023-04-22T04:45:00.450Z,975.06
2023-04-22T04:46:00.395Z,975.09
2023-04-22T04:47:00.450Z,975.04
2023-04-22T04:48:00.448Z,975.04
2023-04-22T04:49:00.407Z,975.02
2023-04-22T04:50:00.356Z,975.03
2023-04-22T04:51:00.415Z,975.06
2023-04-22T04:52:01.312Z,975.02
2023-04-22T04:53:01.234Z,975.01
2023-04-22T04:54:00.357Z,975.01
2023-04-22T04:55:00.342Z,974.97
2023-04-22T04:56:00.829Z,975.01
2023-04-22T04:57:00.362Z,975.00
2023-04-22T04:58:00.280Z,975.02
2023-04-22T04:59:00.288Z,975.05
2023-04-22T05:00:00.274Z,975.01
2023-04-22T05:01:00.362Z,975.03
2023-04-22T05:02:00.257Z,975.03
2023-04-22T05:03:00.351Z,975.05
2023-04-22T05:04:00.413Z,975.04
2023-04-22T05:05:00.313Z,975.09
2023-04-22T05:06:00.186Z,975.05
2023-04-22T05:07:00.219Z,975.04
2023-04-22T05:08:00.183Z,974.99
2023-04-22T05:09:00.171Z,974.97
2023-04-22T05:10:00.192Z,974.94
2023-04-22T05:11:00.163Z,974.96
2023-04-22T05:12:00.182Z,974.94
2023-04-22T05:13:01.356Z,974.94
2023-04-22T05:14:00.153Z,974.91
2023-04-22T05:15:00.136Z,974.94
2023-04-22T05:16:00.121Z,974.93
2023-04-22T05:17:00.288Z,974.96
2023-04-22T05:18:00.125Z,974.94
2023-04-22T05:19:00.091Z,974.96
2023-04-22T05:20:00.141Z,974.99
2023-04-22T05:21:00.068Z,975.01
2023-04-22T05:22:00.012Z,974.97
2023-04-22T05:23:00.032Z,974.98
2023-04-22T05:24:00.418Z,975.02
2023-04-22T05:25:00.008Z,975.02
2023-04-22T05:26:00.076Z,975.01
2023-04-22T05:27:00.003Z,975.00
2023-04-22T05:27:59.963Z,975.03
2023-04-22T05:28:59.972Z,974.99
2023-04-22T05:29:59.951Z,975.06
2023-04-22T05:30:59.999Z,975.07
2023-04-22T05:32:00.034Z,975.05
2023-04-22T05:32:59.942Z,975.06
2023-04-22T05:33:59.906Z,975.08
2023-04-22T05:34:59.926Z,975.07
2023-04-22T05:35:59.899Z,975.09
2023-04-22T05:36:59.874Z,975.13
2023-04-22T05:37:59.940Z,975.13
2023-04-22T05:38:59.856Z,975.18
2023-04-22T05:39:59.915Z,975.17
2023-04-22T05:40:59.824Z,975.18
2023-04-22T05:41:59.836Z,975.20
2023-04-22T05:42:59.792Z,975.19
2023-04-22T05:43:59.846Z,975.21
2023-04-22T05:44:59.784Z,975.20
2023-04-22T05:45:59.884Z,975.18
2023-04-22T05:46:59.744Z,975.21
2023-04-22T05:47:59.802Z,975.16
2023-04-22T05:48:59.738Z,975.14
2023-04-22T05:49:59.733Z,975.14
2023-04-22T05:50:59.814Z,975.12
2023-04-22T05:51:59.708Z,975.13
2023-04-22T05:52:59.690Z,975.11
2023-04-22T05:53:59.706Z,975.12
2023-04-22T05:54:59.671Z,975.08
2023-04-22T05:55:59.671Z,975.14
2023-04-22T05:56:59.667Z,975.09
2023-04-22T05:57:59.636Z,975.14
2023-04-22T05:58:59.659Z,975.15
2023-04-22T05:59:59.614Z,975.13
2023-04-22T06:00:59.577Z,975.13
2023-04-22T06:01:59.637Z,975.12
2023-04-22T06:02:59.787Z,975.07
2023-04-22T06:03:59.939Z,975.12
2023-04-22T06:04:59.971Z,975.10
2023-04-22T06:05:59.598Z,975.08
2023-04-22T06:06:59.568Z,975.05
2023-04-22T06:07:59.537Z,975.06
2023-04-22T06:08:59.496Z,975.07
2023-04-22T06:10:04.463Z,975.12
2023-04-22T06:11:00.511Z,975.11
2023-04-22T06:11:59.496Z,975.08
2023-04-22T06:12:59.508Z,975.08
2023-04-22T06:13:59.469Z,975.04
2023-04-22T06:14:59.436Z,975.07
2023-04-22T06:15:59.450Z,975.07
2023-04-22T06:16:59.467Z,975.08
2023-04-22T06:17:59.563Z,975.07
2023-04-22T06:18:59.384Z,975.12
2023-04-22T06:19:59.397Z,975.13
2023-04-22T06:20:59.384Z,975.09
2023-04-22T06:21:59.358Z,975.13
2023-04-22T06:22:59.347Z,975.09
2023-04-22T06:23:59.345Z,975.13
2023-04-22T06:24:59.350Z,975.14
2023-04-22T06:25:59.335Z,975.14
2023-04-22T06:26:59.413Z,975.18
2023-04-22T06:27:59.303Z,975.19
2023-04-22T06:28:59.327Z,975.18
2023-04-22T06:29:59.292Z,975.15
2023-04-22T06:30:59.264Z,975.14
2023-04-22T06:31:59.266Z,975.14
2023-04-22T06:33:00.215Z,975.14
2023-04-22T06:33:59.369Z,975.13
2023-04-22T06:34:59.227Z,975.13
2023-04-22T06:35:59.238Z,975.11
2023-04-22T06:36:59.214Z,975.08
2023-04-22T06:37:59.392Z,975.05
2023-04-22T06:38:59.603Z,975.08
2023-04-22T06:39:59.166Z,975.08
2023-04-22T06:40:59.145Z,975.09
2023-04-22T06:41:59.158Z,975.03
2023-04-22T06:42:59.139Z,975.00
2023-04-22T06:43:59.115Z,975.00
2023-04-22T06:44:59.110Z,974.96
2023-04-22T06:45:59.132Z,974.94
2023-04-22T06:46:59.143Z,974.95
2023-04-22T06:47:59.118Z,974.96
2023-04-22T06:48:59.060Z,974.87
2023-04-22T06:49:59.104Z,974.87
2023-04-22T06:50:59.032Z,974.86
2023-04-22T06:51:59.023Z,974.83
2023-04-22T06:52:59.054Z,974.82
2023-04-22T06:53:59.057Z,974.82
2023-04-22T06:54:58.967Z,974.84
2023-04-22T06:55:59.007Z,974.78
2023-04-22T06:56:58.956Z,974.79
2023-04-22T06:57:58.973Z,974.80
2023-04-22T06:58:58.963Z,974.80
2023-04-22T06:59:58.966Z,974.81
2023-04-22T07:00:58.911Z,974.84
2023-04-22T07:01:58.964Z,974.84
2023-04-22T07:02:58.994Z,974.85
2023-04-22T07:03:59.030Z,974.83
2023-04-22T07:04:58.884Z,974.81
2023-04-22T07:05:59.056Z,974.82
2023-04-22T07:06:58.858Z,974.82
2023-04-22T07:07:58.862Z,974.81
2023-04-22T07:08:58.827Z,974.81
2023-04-22T07:09:58.850Z,974.85
2023-04-22T07:10:58.818Z,974.88
2023-04-22T07:11:58.849Z,974.82
2023-04-22T07:12:58.793Z,974.82
2023-04-22T07:13:58.850Z,974.86
2023-04-22T07:14:58.764Z,974.83
2023-04-22T07:15:58.846Z,974.82
2023-04-22T07:16:58.745Z,974.79
2023-04-22T07:17:58.802Z,974.82
2023-04-22T07:18:58.735Z,974.81
2023-04-22T07:19:58.727Z,974.85
2023-04-22T07:20:58.687Z,974.83
2023-04-22T07:21:58.692Z,974.84
2023-04-22T07:22:58.684Z,974.84
2023-04-22T07:23:58.706Z,974.84
2023-04-22T07:24:58.627Z,974.86
2023-04-22T07:25:58.682Z,974.80
2023-04-22T07:26:58.623Z,974.79
2023-04-22T07:27:58.635Z,974.82
2023-04-22T07:28:58.648Z,974.82
2023-04-22T07:29:58.657Z,974.77
2023-04-22T07:30:58.595Z,974.81
2023-04-22T07:31:58.607Z,974.81
2023-04-22T07:32:58.600Z,974.75
2023-04-22T07:33:58.611Z,974.77
2023-04-22T07:34:58.539Z,974.73
2023-04-22T07:35:58.569Z,974.72
2023-04-22T07:36:58.506Z,974.70
2023-04-22T07:37:58.596Z,974.70
2023-04-22T07:38:58.497Z,974.69
2023-04-22T07:39:58.650Z,974.67
2023-04-22T07:40:58.457Z,974.66
2023-04-22T07:41:58.540Z,974.61
2023-04-22T07:42:58.442Z,974.65
2023-04-22T07:43:58.463Z,974.60
2023-04-22T07:44:58.407Z,974.60
2023-04-22T07:45:58.516Z,974.60
2023-04-22T07:46:58.402Z,974.59
2023-04-22T07:48:05.511Z,974.59
2023-04-22T07:48:59.263Z,974.60
2023-04-22T07:49:58.448Z,974.59
2023-04-22T07:50:58.340Z,974.55
2023-04-22T07:51:58.351Z,974.57
2023-04-22T07:52:58.339Z,974.61
2023-04-22T07:53:58.347Z,974.62
2023-04-22T07:54:58.282Z,974.59
2023-04-22T07:55:59.305Z,974.58
2023-04-22T07:56:58.276Z,974.57
2023-04-22T07:57:58.280Z,974.59
2023-04-22T07:58:58.240Z,974.59
2023-04-22T07:59:58.293Z,974.57
2023-04-22T08:00:59.151Z,974.52
2023-04-22T08:01:58.281Z,974.54
2023-04-22T08:02:58.317Z,974.50
2023-04-22T08:03:58.423Z,974.52
2023-04-22T08:04:58.256Z,974.48
2023-04-22T08:05:58.191Z,974.47
2023-04-22T08:06:58.181Z,974.45
2023-04-22T08:07:58.155Z,974.47
2023-04-22T08:08:58.143Z,974.53
2023-04-22T08:09:58.146Z,974.41
2023-04-22T08:10:58.123Z,974.44
2023-04-22T08:11:58.169Z,974.43
2023-04-22T08:12:58.108Z,974.35
2023-04-22T08:13:58.120Z,974.36
2023-04-22T08:14:58.099Z,974.40
2023-04-22T08:15:58.103Z,974.42
2023-04-22T08:16:58.071Z,974.47
2023-04-22T08:17:58.151Z,974.36
2023-04-22T08:18:58.031Z,974.31
2023-04-22T08:19:58.192Z,974.33
2023-04-22T08:20:58.008Z,974.37
2023-04-22T08:21:58.013Z,974.34
2023-04-22T08:22:57.983Z,974.36
2023-04-22T08:23:58.002Z,974.31
2023-04-22T08:24:58.148Z,974.29
2023-04-22T08:25:57.980Z,974.30
2023-04-22T08:26:57.964Z,974.36
2023-04-22T08:27:57.955Z,974.41
2023-04-22T08:28:57.920Z,974.32
2023-04-22T08:29:57.968Z,974.38
2023-04-22T08:30:57.940Z,974.39
2023-04-22T08:31:58.086Z,974.35
2023-04-22T08:32:57.918Z,974.38
2023-04-22T08:33:57.913Z,974.47
2023-04-22T08:35:04.339Z,974.41
2023-04-22T08:35:58.863Z,974.34
2023-04-22T08:36:57.821Z,974.46
2023-04-22T08:37:57.834Z,974.44
2023-04-22T08:38:57.807Z,974.40
2023-04-22T08:39:57.841Z,974.36
2023-04-22T08:40:58.534Z,974.38
2023-04-22T08:41:58.554Z,974.35
2023-04-22T08:42:57.793Z,974.26
2023-04-22T08:43:57.820Z,974.25
2023-04-22T08:44:57.840Z,974.31
2023-04-22T08:45:57.761Z,974.25
2023-04-22T08:46:57.786Z,974.30
2023-04-22T08:47:57.768Z,974.29
2023-04-22T08:48:57.694Z,974.27
2023-04-22T08:49:57.710Z,974.29
2023-04-22T08:50:57.667Z,974.17
2023-04-22T08:51:57.713Z,974.12
2023-04-22T08:52:57.648Z,974.10
2023-04-22T08:53:57.677Z,974.12
2023-04-22T08:54:57.705Z,974.13
2023-04-22T08:55:57.666Z,974.19
2023-04-22T08:56:57.623Z,974.20
2023-04-22T08:57:57.625Z,974.20
2023-04-22T08:58:57.588Z,974.29
2023-04-22T08:59:57.616Z,974.22
2023-04-22T09:00:57.843Z,974.24
2023-04-22T09:01:57.619Z,974.27
2023-04-22T09:02:57.581Z,974.28
2023-04-22T09:03:57.646Z,974.18
2023-04-22T09:04:57.581Z,974.13
2023-04-22T09:05:57.537Z,974.18
2023-04-22T09:06:57.510Z,974.16
2023-04-22T09:07:57.512Z,974.16
2023-04-22T09:08:57.479Z,974.17
2023-04-22T09:09:57.498Z,974.16
2023-04-22T09:10:57.454Z,974.21
2023-04-22T09:11:57.471Z,974.11
2023-04-22T09:12:57.436Z,974.10
2023-04-22T09:13:57.466Z,974.05
2023-04-22T09:14:57.425Z,974.16
2023-04-22T09:15:59.876Z,974.16
2023-04-22T09:16:57.399Z,974.13
2023-04-22T09:17:57.462Z,974.09
2023-04-22T09:18:57.370Z,974.12
2023-04-22T09:19:57.382Z,974.06
2023-04-22T09:20:57.369Z,974.07
2023-04-22T09:21:58.303Z,974.05
2023-04-22T09:22:57.382Z,974.03
2023-04-22T09:23:57.362Z,974.04
2023-04-22T09:24:57.317Z,974.06
2023-04-22T09:25:57.341Z,974.14
2023-04-22T09:26:57.303Z,974.12
2023-04-22T09:27:57.285Z,974.15
2023-04-22T09:28:57.933Z,974.05
2023-04-22T09:29:57.286Z,973.93
2023-04-22T09:30:57.224Z,974.14
2023-04-22T09:31:57.249Z,974.15
2023-04-22T09:32:57.343Z,974.03
2023-04-22T09:33:57.288Z,973.96
2023-04-22T09:34:57.564Z,973.97
2023-04-22T09:35:57.232Z,974.05
2023-04-22T09:36:57.183Z,974.04
2023-04-22T09:37:57.189Z,973.91
2023-04-22T09:38:57.198Z,973.90
2023-04-22T09:39:57.186Z,973.92
2023-04-22T09:40:57.399Z,973.91
2023-04-22T09:41:57.326Z,973.99
2023-04-22T09:42:57.212Z,973.96
2023-04-22T09:43:57.547Z,973.97
2023-04-22T09:44:57.340Z,974.02
2023-04-22T09:45:57.088Z,973.79
2023-04-22T09:46:57.104Z,973.98
2023-04-22T09:47:57.143Z,973.94
2023-04-22T09:48:57.130Z,973.90
2023-04-22T09:49:57.153Z,973.91
2023-04-22T09:50:57.036Z,973.95
2023-04-22T09:51:57.273Z,973.95
2023-04-22T09:52:57.876Z,973.97
2023-04-22T09:53:57.286Z,973.89
2023-04-22T09:54:57.012Z,973.91
2023-04-22T09:55:57.306Z,973.91
2023-04-22T09:56:57.000Z,973.91
2023-04-22T09:57:57.013Z,973.91
2023-04-22T09:58:57.021Z,973.93
2023-04-22T09:59:57.055Z,973.93
2023-04-22T10:00:57.054Z,973.91
2023-04-22T10:01:56.914Z,973.94
2023-04-22T10:02:57.152Z,973.90
2023-04-22T10:03:56.977Z,973.91
2023-04-22T10:04:56.936Z,973.92
2023-04-22T10:05:56.882Z,973.87
2023-04-22T10:06:56.894Z,973.92
2023-04-22T10:07:56.880Z,973.84
2023-04-22T10:08:56.920Z,973.87
2023-04-22T10:09:56.865Z,973.98
2023-04-22T10:10:56.839Z,973.89
2023-04-22T10:11:56.819Z,973.89
2023-04-22T10:12:56.843Z,973.90
2023-04-22T10:13:56.780Z,973.91
2023-04-22T10:14:56.820Z,974.02
2023-04-22T10:15:56.978Z,974.02
2023-04-22T10:16:57.023Z,973.89
2023-04-22T10:17:56.956Z,973.87
2023-04-22T10:18:56.841Z,973.80
2023-04-22T10:19:57.093Z,973.80
2023-04-22T10:20:57.181Z,973.80
2023-04-22T10:21:56.703Z,973.81
2023-04-22T10:22:57.298Z,973.76
2023-04-22T10:23:58.151Z,973.73
2023-04-22T10:24:57.163Z,973.75
2023-04-22T10:25:56.949Z,973.76
2023-04-22T10:26:57.252Z,973.77
2023-04-22T10:27:56.826Z,973.71
2023-04-22T10:28:56.907Z,973.80
2023-04-22T10:29:57.849Z,973.85
2023-04-22T10:30:56.922Z,973.71
2023-04-22T10:31:56.764Z,973.72
2023-04-22T10:32:56.638Z,973.87
2023-04-22T10:33:56.748Z,973.76
2023-04-22T10:34:56.663Z,973.79
2023-04-22T10:35:56.699Z,973.85
2023-04-22T10:36:56.728Z,973.82
2023-04-22T10:37:56.629Z,973.76
2023-04-22T10:38:56.552Z,973.72
2023-04-22T10:39:56.542Z,973.67
2023-04-22T10:40:56.585Z,973.73
2023-04-22T10:41:56.627Z,973.72
2023-04-22T10:42:56.537Z,973.73
2023-04-22T10:43:56.593Z,973.69
2023-04-22T10:44:56.426Z,973.65
2023-04-22T10:45:56.732Z,973.60
2023-04-22T10:46:56.445Z,973.68
2023-04-22T10:47:56.392Z,973.58
2023-04-22T10:48:56.429Z,973.66
2023-04-22T10:49:57.582Z,973.59
2023-04-22T10:50:56.429Z,973.58
2023-04-22T10:51:56.419Z,973.54
2023-04-22T10:52:56.367Z,973.67
2023-04-22T10:53:56.530Z,973.65
2023-04-22T10:54:56.347Z,973.66
2023-04-22T10:55:56.340Z,973.58
2023-04-22T10:56:58.220Z,973.64
2023-04-22T10:57:56.475Z,973.59
2023-04-22T10:58:57.159Z,973.60
2023-04-22T10:59:56.480Z,973.67
2023-04-22T11:00:56.283Z,973.57
2023-04-22T11:01:56.308Z,973.68
2023-04-22T11:02:56.436Z,973.62
2023-04-22T11:03:56.279Z,973.63
2023-04-22T11:04:56.213Z,973.59
2023-04-22T11:05:56.202Z,973.55
2023-04-22T11:06:56.209Z,973.54
2023-04-22T11:07:56.180Z,973.57
2023-04-22T11:08:56.786Z,973.53
2023-04-22T11:09:56.147Z,973.53
2023-04-22T11:10:56.149Z,973.46
2023-04-22T11:11:56.953Z,973.44
2023-04-22T11:12:56.138Z,973.46
2023-04-22T11:13:56.129Z,973.45
2023-04-22T11:14:56.131Z,973.46
2023-04-22T11:15:56.127Z,973.43
2023-04-22T11:16:56.124Z,973.47
2023-04-22T11:17:56.159Z,973.50
2023-04-22T11:18:56.080Z,973.42
2023-04-22T11:19:56.042Z,973.35
2023-04-22T11:20:56.035Z,973.38
2023-04-22T11:21:56.007Z,973.31
2023-04-22T11:22:56.014Z,973.32
2023-04-22T11:23:55.980Z,973.30
2023-04-22T11:24:56.044Z,973.36
2023-04-22T11:25:55.972Z,973.42
2023-04-22T11:26:55.965Z,973.51
2023-04-22T11:27:55.944Z,973.50
2023-04-22T11:28:55.991Z,973.42
2023-04-22T11:29:55.919Z,973.43
2023-04-22T11:30:55.931Z,973.42
2023-04-22T11:31:55.946Z,973.45
2023-04-22T11:32:55.910Z,973.47
2023-04-22T11:33:55.862Z,973.51
2023-04-22T11:34:55.902Z,973.31
2023-04-22T11:35:55.852Z,973.53
2023-04-22T11:36:55.857Z,973.58
2023-04-22T11:37:55.840Z,973.50
2023-04-22T11:38:55.822Z,973.48
2023-04-22T11:40:10.140Z,973.58
2023-04-22T11:40:56.797Z,973.59
2023-04-22T11:41:55.770Z,973.52
2023-04-22T11:42:55.805Z,973.52
2023-04-22T11:43:55.797Z,973.55
2023-04-22T11:44:55.766Z,973.61
2023-04-22T11:45:55.870Z,973.55
2023-04-22T11:46:55.746Z,973.51
2023-04-22T11:47:55.746Z,973.50
2023-04-22T11:48:55.750Z,973.47
2023-04-22T11:49:55.708Z,973.46
2023-04-22T11:50:55.727Z,973.46
2023-04-22T11:51:55.668Z,973.59
2023-04-22T11:52:55.713Z,973.48
2023-04-22T11:53:55.653Z,973.48
2023-04-22T11:54:55.686Z,973.47
2023-04-22T11:55:55.635Z,973.47
2023-04-22T11:56:56.599Z,973.47
2023-04-22T11:57:55.596Z,973.46
2023-04-22T11:58:55.597Z,973.49
2023-04-22T11:59:55.587Z,973.49
2023-04-22T12:00:55.636Z,973.43
2023-04-22T12:01:55.574Z,973.43
2023-04-22T12:02:56.153Z,973.49
2023-04-22T12:03:55.576Z,973.56
2023-04-22T12:04:55.596Z,973.57
2023-04-22T12:05:55.532Z,973.53
2023-04-22T12:06:55.535Z,973.51
2023-04-22T12:07:55.505Z,973.50
2023-04-22T12:08:55.518Z,973.44
2023-04-22T12:09:55.472Z,973.41
2023-04-22T12:10:55.511Z,973.39
2023-04-22T12:11:55.471Z,973.53
2023-04-22T12:12:55.446Z,973.53
2023-04-22T12:13:55.596Z,973.51
2023-04-22T12:14:55.438Z,973.51
2023-04-22T12:15:55.406Z,973.53
2023-04-22T12:16:55.488Z,973.77
2023-04-22T12:17:55.518Z,973.62
2023-04-22T12:18:55.387Z,973.51
2023-04-22T12:19:55.345Z,973.55
2023-04-22T12:20:55.365Z,973.60
2023-04-22T12:21:55.416Z,973.69
2023-04-22T12:22:55.351Z,973.63
2023-04-22T12:23:55.323Z,973.58
2023-04-22T12:24:56.101Z,973.54
2023-04-22T12:25:55.341Z,973.60
2023-04-22T12:26:55.365Z,973.58
2023-04-22T12:27:55.356Z,973.57
2023-04-22T12:28:56.233Z,973.51
2023-04-22T12:29:55.382Z,973.45